SLVR/VVI METAR and TAF weather

Enter ICAO airport designator
Station Type Date Time Source
SLVR METAR 2019/04/25 16:00 UTC NOAA

SLVR 251600Z 34013KT 9999 FEW013 SCT015 30/24 Q1015


Station Type Date Time Source
SLVR Decoded METAR 2019/04/25 16:00 UTC NOAA

Viru-Viru, Bolivia (SLVR) 17-38S 063-08W
Apr 25, 2019 - 12:00 PM EDT / 2019.04.25 1600 UTC
Wind: from the NNW (340 degrees) at 15 MPH (13 KT):0
Visibility: greater than 7 mile(s):0
Sky conditions: partly cloudy
Temperature: 86 F (30 C)
Heat index: 95.0 F (35.0 C):1
Dew Point: 75 F (24 C)
Relative Humidity: 70%
Pressure (altimeter): 29.97 in. Hg (1015 hPa)
ob: SLVR 251600Z 34013KT 9999 FEW013 SCT015 30/24 Q1015
cycle: 16

Station Type Date Time Source
SLVR TAF 2019/04/25 12:54 UTC NOAA

TAF SLVR 251050Z 2512/2612 36010KT 9999 SCT070 TX31/2520Z TN22/2611Z
TEMPO 2515/2518 SCT020
BECMG 2602/2606 VRB02KT NSC
TEMPO 2608/2610 SCT023

Example: see airport list